createdAt,value
2018-04-30T00:00:23.202Z,17.61
2018-04-30T00:01:22.967Z,17.61
2018-04-30T00:02:23.010Z,17.59
2018-04-30T00:03:22.978Z,17.64
2018-04-30T00:04:22.922Z,17.59
2018-04-30T00:05:23.067Z,17.57
2018-04-30T00:06:22.930Z,17.57
2018-04-30T00:07:22.940Z,17.58
2018-04-30T00:08:22.964Z,17.59
2018-04-30T00:09:22.935Z,17.58
2018-04-30T00:10:23.306Z,17.62
2018-04-30T00:11:22.942Z,17.57
2018-04-30T00:12:22.972Z,17.57
2018-04-30T00:13:22.959Z,17.52
2018-04-30T00:14:23.018Z,17.47
2018-04-30T00:15:23.015Z,17.48
2018-04-30T00:16:22.995Z,17.47
2018-04-30T00:17:23.027Z,17.47
2018-04-30T00:18:23.103Z,17.44
2018-04-30T00:19:23.027Z,17.38
2018-04-30T00:20:22.976Z,17.4
2018-04-30T00:21:22.955Z,17.37
2018-04-30T00:22:22.999Z,17.32
2018-04-30T00:23:23.078Z,17.3
2018-04-30T00:24:23.013Z,17.29
2018-04-30T00:25:23.045Z,17.31
2018-04-30T00:26:23.027Z,17.25
2018-04-30T00:27:23.049Z,17.27
2018-04-30T00:28:23.031Z,17.23
2018-04-30T00:29:22.989Z,17.23
2018-04-30T00:30:23.013Z,17.26
2018-04-30T00:31:22.971Z,17.26
2018-04-30T00:32:22.990Z,17.23
2018-04-30T00:33:23.101Z,17.18
2018-04-30T00:34:23.047Z,17.15
2018-04-30T00:35:23.017Z,17.16
2018-04-30T00:36:23.006Z,17.16
2018-04-30T00:37:22.989Z,17.14
2018-04-30T00:38:22.995Z,17.16
2018-04-30T00:39:23.089Z,17.17
2018-04-30T00:40:23.081Z,17.11
2018-04-30T00:41:22.959Z,17.09
2018-04-30T00:42:22.984Z,17.08
2018-04-30T00:43:22.983Z,17.05
2018-04-30T00:44:23.042Z,17.12
2018-04-30T00:45:22.979Z,17.12
2018-04-30T00:46:22.981Z,17.17
2018-04-30T00:47:22.965Z,17.13
2018-04-30T00:48:22.983Z,17.13
2018-04-30T00:49:23.061Z,17.12
2018-04-30T00:50:23.006Z,17.13
2018-04-30T00:51:22.982Z,17.12
2018-04-30T00:52:22.972Z,17.09
2018-04-30T00:53:23.071Z,17.05
2018-04-30T00:54:23.012Z,17.03
2018-04-30T00:55:22.978Z,16.92
2018-04-30T00:56:23.030Z,16.92
2018-04-30T00:57:22.998Z,16.99
2018-04-30T00:58:23.133Z,16.94
2018-04-30T00:59:22.936Z,16.85
2018-04-30T01:00:22.909Z,16.84
2018-04-30T01:01:22.971Z,16.84
2018-04-30T01:02:22.988Z,16.85
2018-04-30T01:03:23.456Z,16.87
2018-04-30T01:04:22.990Z,16.85
2018-04-30T01:05:22.929Z,16.83
2018-04-30T01:06:23.165Z,16.79
2018-04-30T01:07:23.102Z,16.76
2018-04-30T01:08:22.955Z,16.7
2018-04-30T01:09:22.971Z,16.66
2018-04-30T01:10:23.016Z,16.64
2018-04-30T01:11:23.008Z,16.6
2018-04-30T01:12:22.947Z,16.61
2018-04-30T01:13:22.967Z,16.61
2018-04-30T01:14:22.952Z,16.58
2018-04-30T01:15:22.983Z,16.58
2018-04-30T01:16:22.917Z,16.58
2018-04-30T01:17:22.910Z,16.54
2018-04-30T01:18:22.974Z,16.54
2018-04-30T01:19:22.994Z,16.53
2018-04-30T01:20:22.998Z,16.52
2018-04-30T01:21:22.989Z,16.47
2018-04-30T01:22:23.035Z,16.48
2018-04-30T01:23:23.030Z,16.52
2018-04-30T01:24:22.953Z,16.52
2018-04-30T01:25:22.966Z,16.55
2018-04-30T01:26:22.962Z,16.5
2018-04-30T01:27:22.917Z,16.52
2018-04-30T01:28:22.976Z,16.52
2018-04-30T01:29:22.949Z,16.5
2018-04-30T01:30:22.942Z,16.5
2018-04-30T01:31:23.023Z,16.5
2018-04-30T01:32:22.925Z,16.48
2018-04-30T01:33:23.037Z,16.44
2018-04-30T01:34:22.916Z,16.38
2018-04-30T01:35:22.913Z,16.35
2018-04-30T01:36:23.002Z,16.35
2018-04-30T01:37:22.971Z,16.36
2018-04-30T01:38:22.985Z,16.36
2018-04-30T01:39:23.075Z,16.37
2018-04-30T01:40:22.933Z,16.37
2018-04-30T01:41:23.344Z,16.33
2018-04-30T01:42:22.958Z,16.32
2018-04-30T01:43:22.945Z,16.29
2018-04-30T01:44:22.999Z,16.26
2018-04-30T01:45:22.991Z,16.29
2018-04-30T01:46:22.969Z,16.31
2018-04-30T01:47:23.098Z,16.29
2018-04-30T01:48:22.969Z,16.29
2018-04-30T01:49:22.953Z,16.26
2018-04-30T01:50:22.978Z,16.19
2018-04-30T01:51:22.970Z,16.22
2018-04-30T01:52:23.035Z,16.2
2018-04-30T01:53:23.068Z,16.2
2018-04-30T01:54:22.984Z,16.23
2018-04-30T01:55:23.016Z,16.26
2018-04-30T01:56:23.094Z,16.18
2018-04-30T01:57:22.971Z,16.18
2018-04-30T01:58:22.971Z,16.2
2018-04-30T01:59:22.943Z,16.14
2018-04-30T02:00:22.939Z,16.15
2018-04-30T02:01:22.948Z,16.13
2018-04-30T02:02:22.957Z,16.12
2018-04-30T02:03:23.044Z,16.09
2018-04-30T02:04:23.001Z,16.08
2018-04-30T02:05:23.149Z,16.12
2018-04-30T02:06:22.941Z,16.11
2018-04-30T02:07:22.928Z,16.12
2018-04-30T02:08:22.967Z,16.09
2018-04-30T02:09:22.988Z,16.12
2018-04-30T02:10:22.981Z,16.04
2018-04-30T02:11:23.059Z,16.02
2018-04-30T02:12:22.935Z,16.01
2018-04-30T02:13:22.972Z,16
2018-04-30T02:14:22.977Z,15.97
2018-04-30T02:15:22.968Z,15.97
2018-04-30T02:16:23.065Z,15.98
2018-04-30T02:17:22.956Z,15.98
2018-04-30T02:18:23.044Z,16
2018-04-30T02:19:22.996Z,16.03
2018-04-30T02:20:22.912Z,16.05
2018-04-30T02:21:22.951Z,16.04
2018-04-30T02:22:22.944Z,16.01
2018-04-30T02:23:22.975Z,16.03
2018-04-30T02:24:22.982Z,16
2018-04-30T02:25:22.992Z,16
2018-04-30T02:26:22.926Z,15.99
2018-04-30T02:27:22.982Z,15.94
2018-04-30T02:28:22.987Z,15.94
2018-04-30T02:29:23.017Z,15.94
2018-04-30T02:30:22.992Z,15.93
2018-04-30T02:31:22.990Z,15.97
2018-04-30T02:32:22.966Z,15.99
2018-04-30T02:33:22.942Z,15.96
2018-04-30T02:34:23.121Z,15.98
2018-04-30T02:35:22.985Z,15.94
2018-04-30T02:36:22.990Z,15.98
2018-04-30T02:37:23.004Z,15.99
2018-04-30T02:38:23.012Z,15.96
2018-04-30T02:39:22.971Z,15.96
2018-04-30T02:40:23.053Z,15.94
2018-04-30T02:41:22.961Z,15.92
2018-04-30T02:42:22.973Z,15.88
2018-04-30T02:43:22.991Z,15.91
2018-04-30T02:44:23.098Z,15.93
2018-04-30T02:45:23.029Z,15.9
2018-04-30T02:46:23.022Z,15.92
2018-04-30T02:47:22.955Z,15.85
2018-04-30T02:48:23.007Z,15.82
2018-04-30T02:49:23.016Z,15.82
2018-04-30T02:50:23.164Z,15.81
2018-04-30T02:51:23.010Z,15.81
2018-04-30T02:52:23.022Z,15.84
2018-04-30T02:53:22.995Z,15.78
2018-04-30T02:54:23.075Z,15.71
2018-04-30T02:55:23.041Z,15.63
2018-04-30T02:56:22.970Z,15.68
2018-04-30T02:57:22.977Z,15.62
2018-04-30T02:58:23.015Z,15.52
2018-04-30T02:59:23.023Z,15.45
2018-04-30T03:00:23.027Z,15.43
2018-04-30T03:01:23.086Z,15.44
2018-04-30T03:02:23.016Z,15.4
2018-04-30T03:03:23.003Z,15.38
2018-04-30T03:04:23.007Z,15.38
2018-04-30T03:05:23.049Z,15.36
2018-04-30T03:06:23.050Z,15.43
2018-04-30T03:07:23.132Z,15.43
2018-04-30T03:08:23.018Z,15.3
2018-04-30T03:09:22.987Z,15.36
2018-04-30T03:10:23.057Z,15.31
2018-04-30T03:11:23.007Z,15.36
2018-04-30T03:12:23.027Z,15.38
2018-04-30T03:13:23.033Z,15.35
2018-04-30T03:14:22.994Z,15.35
2018-04-30T03:15:23.052Z,15.34
2018-04-30T03:16:23.026Z,15.3
2018-04-30T03:17:23.017Z,15.27
2018-04-30T03:18:23.050Z,15.28
2018-04-30T03:19:23.113Z,15.28
2018-04-30T03:20:23.305Z,15.27
2018-04-30T03:21:23.069Z,15.25
2018-04-30T03:22:22.999Z,15.27
2018-04-30T03:23:23.012Z,15.31
2018-04-30T03:24:23.027Z,15.35
2018-04-30T03:25:22.986Z,15.37
2018-04-30T03:26:23.040Z,15.39
2018-04-30T03:27:23.613Z,15.32
2018-04-30T03:28:22.997Z,15.31
2018-04-30T03:29:23.054Z,15.27
2018-04-30T03:30:23.028Z,15.18
2018-04-30T03:31:22.994Z,15.23
2018-04-30T03:32:23.011Z,15.2
2018-04-30T03:33:23.045Z,15.2
2018-04-30T03:34:23.009Z,15.15
2018-04-30T03:35:23.050Z,15.08
2018-04-30T03:36:22.993Z,15.05
2018-04-30T03:37:23.021Z,15.07
2018-04-30T03:38:22.954Z,15.09
2018-04-30T03:39:23.060Z,15.12
2018-04-30T03:40:22.976Z,15.09
2018-04-30T03:41:22.982Z,15.12
2018-04-30T03:42:22.979Z,15.07
2018-04-30T03:43:22.973Z,15.06
2018-04-30T03:44:22.972Z,15
2018-04-30T03:45:23.003Z,15.01
2018-04-30T03:46:22.981Z,14.93
2018-04-30T03:47:22.971Z,14.92
2018-04-30T03:48:23.272Z,14.93
2018-04-30T03:49:22.978Z,14.9
2018-04-30T03:50:22.995Z,14.81
2018-04-30T03:51:22.967Z,14.72
2018-04-30T03:52:23.033Z,14.74
2018-04-30T03:53:23.207Z,14.74
2018-04-30T03:54:22.967Z,14.81
2018-04-30T03:55:23.104Z,14.85
2018-04-30T03:56:22.966Z,14.8
2018-04-30T03:57:22.961Z,14.82
2018-04-30T03:58:23.054Z,14.87
2018-04-30T03:59:23.106Z,14.87
2018-04-30T04:00:23.062Z,14.89
2018-04-30T04:01:23.050Z,14.9
2018-04-30T04:02:23.077Z,14.88
2018-04-30T04:03:23.021Z,14.9
2018-04-30T04:04:23.182Z,14.87
2018-04-30T04:05:22.993Z,14.86
2018-04-30T04:06:23.038Z,14.79
2018-04-30T04:07:22.980Z,14.78
2018-04-30T04:08:23.014Z,14.7
2018-04-30T04:09:22.979Z,14.69
2018-04-30T04:10:22.985Z,14.74
2018-04-30T04:11:23.013Z,14.72
2018-04-30T04:12:22.969Z,14.62
2018-04-30T04:13:23.113Z,14.63
2018-04-30T04:14:23.006Z,14.66
2018-04-30T04:15:23.028Z,14.72
2018-04-30T04:16:22.996Z,14.72
2018-04-30T04:17:23.051Z,14.72
2018-04-30T04:18:23.010Z,14.74
2018-04-30T04:19:23.115Z,14.78
2018-04-30T04:20:23.101Z,14.76
2018-04-30T04:21:22.991Z,14.74
2018-04-30T04:22:23.025Z,14.7
2018-04-30T04:23:23.006Z,14.7
2018-04-30T04:24:23.050Z,14.72
2018-04-30T04:25:23.049Z,14.72
2018-04-30T04:26:22.996Z,14.73
2018-04-30T04:27:23.060Z,14.72
2018-04-30T04:28:23.141Z,14.72
2018-04-30T04:29:23.016Z,14.72
2018-04-30T04:30:23.103Z,14.7
2018-04-30T04:31:23.058Z,14.7
2018-04-30T04:32:23.111Z,14.68
2018-04-30T04:33:23.031Z,14.68
2018-04-30T04:34:23.009Z,14.68
2018-04-30T04:35:22.984Z,14.69
2018-04-30T04:36:23.140Z,14.69
2018-04-30T04:37:22.974Z,14.69
2018-04-30T04:38:23.052Z,14.68
2018-04-30T04:39:23.233Z,14.67
2018-04-30T04:40:23.043Z,14.67
2018-04-30T04:41:23.077Z,14.67
2018-04-30T04:42:22.983Z,14.67
2018-04-30T04:43:23.011Z,14.67
2018-04-30T04:44:23.069Z,14.67
2018-04-30T04:45:23.029Z,14.66
2018-04-30T04:46:23.026Z,14.66
2018-04-30T04:47:23.394Z,14.65
2018-04-30T04:48:23.061Z,14.62
2018-04-30T04:49:23.010Z,14.62
2018-04-30T04:50:23.073Z,14.61
2018-04-30T04:51:23.033Z,14.6
2018-04-30T04:52:23.093Z,14.61
2018-04-30T04:53:23.042Z,14.58
2018-04-30T04:54:23.017Z,14.53
2018-04-30T04:55:23.026Z,14.53
2018-04-30T04:56:23.043Z,14.54
2018-04-30T04:57:23.028Z,14.53
2018-04-30T04:58:23.022Z,14.51
2018-04-30T04:59:23.003Z,14.53
2018-04-30T05:00:23.035Z,14.52
2018-04-30T05:01:23.007Z,14.5
2018-04-30T05:02:23.930Z,14.51
2018-04-30T05:03:23.009Z,14.48
2018-04-30T05:04:23.200Z,14.48
2018-04-30T05:05:23.040Z,14.44
2018-04-30T05:06:23.089Z,14.42
2018-04-30T05:07:23.057Z,14.42
2018-04-30T05:08:23.042Z,14.39
2018-04-30T05:09:23.053Z,14.41
2018-04-30T05:10:23.063Z,14.38
2018-04-30T05:11:23.003Z,14.37
2018-04-30T05:12:23.043Z,14.35
2018-04-30T05:13:22.992Z,14.35
2018-04-30T05:14:23.032Z,14.36
2018-04-30T05:15:23.091Z,14.33
2018-04-30T05:16:23.075Z,14.36
2018-04-30T05:17:23.058Z,14.36
2018-04-30T05:18:23.183Z,14.34
2018-04-30T05:19:23.067Z,14.32
2018-04-30T05:20:23.046Z,14.33
2018-04-30T05:21:23.052Z,14.34
2018-04-30T05:22:23.080Z,14.35
2018-04-30T05:23:23.395Z,14.32
2018-04-30T05:24:23.121Z,14.34
2018-04-30T05:25:23.207Z,14.32
2018-04-30T05:26:23.068Z,14.3
2018-04-30T05:27:23.079Z,14.3
2018-04-30T05:28:23.088Z,14.3
2018-04-30T05:29:23.013Z,14.32
2018-04-30T05:30:23.072Z,14.28
2018-04-30T05:31:23.111Z,14.28
2018-04-30T05:32:23.063Z,14.25
2018-04-30T05:33:23.051Z,14.25
2018-04-30T05:34:23.079Z,14.25
2018-04-30T05:35:23.084Z,14.18
2018-04-30T05:36:23.069Z,14.16
2018-04-30T05:37:23.070Z,14.16
2018-04-30T05:38:23.053Z,14.11
2018-04-30T05:39:23.083Z,14.16
2018-04-30T05:40:23.053Z,14.17
2018-04-30T05:41:23.078Z,14.16
2018-04-30T05:42:23.103Z,14.14
2018-04-30T05:43:23.049Z,14.15
2018-04-30T05:44:23.436Z,14.12
2018-04-30T05:45:23.170Z,14.09
2018-04-30T05:46:23.042Z,14.08
2018-04-30T05:47:23.012Z,14.03
2018-04-30T05:48:23.124Z,13.87
2018-04-30T05:49:23.133Z,13.87
2018-04-30T05:50:23.030Z,13.89
2018-04-30T05:51:23.062Z,13.93
2018-04-30T05:52:23.026Z,13.92
2018-04-30T05:53:23.080Z,13.82
2018-04-30T05:54:23.042Z,13.84
2018-04-30T05:55:23.092Z,13.87
2018-04-30T05:56:23.028Z,13.93
2018-04-30T05:57:23.073Z,13.93
2018-04-30T05:58:23.070Z,13.97
2018-04-30T05:59:23.045Z,14
2018-04-30T06:00:23.138Z,14.03
2018-04-30T06:01:23.108Z,14.05
2018-04-30T06:02:23.169Z,14.07
2018-04-30T06:03:23.074Z,14.04
2018-04-30T06:04:23.475Z,14.05
2018-04-30T06:05:23.182Z,14.05
2018-04-30T06:06:23.099Z,14
2018-04-30T06:07:23.055Z,14.01
2018-04-30T06:08:23.057Z,14.05
2018-04-30T06:09:23.090Z,14.07
2018-04-30T06:10:23.096Z,14.04
2018-04-30T06:11:23.039Z,13.99
2018-04-30T06:12:23.073Z,14
2018-04-30T06:13:23.086Z,14.01
2018-04-30T06:14:23.078Z,14.01
2018-04-30T06:15:23.081Z,14.03
2018-04-30T06:16:23.032Z,13.98
2018-04-30T06:17:23.392Z,13.99
2018-04-30T06:18:23.045Z,14.02
2018-04-30T06:19:23.054Z,14.02
2018-04-30T06:20:23.059Z,14.03
2018-04-30T06:21:23.082Z,14.06
2018-04-30T06:22:23.120Z,13.99
2018-04-30T06:23:23.056Z,14.01
2018-04-30T06:24:23.094Z,13.95
2018-04-30T06:25:23.032Z,13.98
2018-04-30T06:26:23.088Z,14.01
2018-04-30T06:27:23.072Z,14.02
2018-04-30T06:28:23.086Z,14.06
2018-04-30T06:29:23.046Z,14
2018-04-30T06:30:23.085Z,13.98
2018-04-30T06:31:23.097Z,13.99
2018-04-30T06:32:24.503Z,13.99
2018-04-30T06:33:23.075Z,14
2018-04-30T06:34:23.044Z,13.94
2018-04-30T06:35:23.101Z,13.97
2018-04-30T06:36:23.043Z,13.93
2018-04-30T06:37:23.139Z,13.9
2018-04-30T06:38:23.398Z,13.88
2018-04-30T06:39:23.115Z,13.92
2018-04-30T06:40:23.052Z,13.92
2018-04-30T06:41:23.062Z,13.98
2018-04-30T06:42:23.113Z,13.98
2018-04-30T06:43:23.131Z,13.97
2018-04-30T06:44:23.149Z,13.97
2018-04-30T06:45:23.088Z,13.98
2018-04-30T06:46:23.111Z,14.02
2018-04-30T06:47:23.072Z,14.02
2018-04-30T06:48:23.074Z,14.05
2018-04-30T06:49:23.219Z,14.06
2018-04-30T06:50:23.167Z,14.07
2018-04-30T06:51:23.067Z,14.06
2018-04-30T06:52:23.139Z,14.05
2018-04-30T06:53:23.248Z,13.93
2018-04-30T06:54:23.118Z,13.94
2018-04-30T06:55:23.144Z,13.94
2018-04-30T06:56:23.049Z,13.88
2018-04-30T06:57:23.049Z,13.93
2018-04-30T06:58:23.077Z,13.96
2018-04-30T06:59:23.076Z,14.05
2018-04-30T07:00:23.802Z,14.15
2018-04-30T07:01:23.071Z,14.2
2018-04-30T07:02:23.210Z,14.23
2018-04-30T07:03:23.087Z,14.29
2018-04-30T07:04:23.063Z,14.33
2018-04-30T07:05:23.209Z,14.37
2018-04-30T07:06:23.062Z,14.36
2018-04-30T07:07:23.105Z,14.39
2018-04-30T07:08:23.043Z,14.37
2018-04-30T07:09:23.914Z,14.42
2018-04-30T07:10:23.159Z,14.34
2018-04-30T07:11:23.125Z,14.37
2018-04-30T07:12:23.070Z,14.4
2018-04-30T07:13:23.084Z,14.34
2018-04-30T07:14:23.110Z,14.35
2018-04-30T07:15:23.099Z,14.36
2018-04-30T07:16:23.083Z,14.38
2018-04-30T07:17:23.378Z,14.37
2018-04-30T07:18:23.103Z,14.42
2018-04-30T07:19:23.115Z,14.47
2018-04-30T07:20:23.070Z,14.52
2018-04-30T07:21:23.077Z,14.49
2018-04-30T07:22:23.085Z,14.47
2018-04-30T07:23:23.112Z,14.5
2018-04-30T07:24:23.066Z,14.57
2018-04-30T07:25:23.078Z,14.63
2018-04-30T07:26:23.165Z,14.64
2018-04-30T07:27:23.100Z,14.69
2018-04-30T07:28:23.131Z,14.68
2018-04-30T07:29:23.106Z,14.67
2018-04-30T07:30:23.090Z,14.59
2018-04-30T07:31:23.116Z,14.53
2018-04-30T07:32:23.079Z,14.49
2018-04-30T07:33:23.104Z,14.53
2018-04-30T07:34:23.084Z,14.58
2018-04-30T07:35:23.136Z,14.61
2018-04-30T07:36:23.221Z,14.63
2018-04-30T07:37:23.108Z,14.72
2018-04-30T07:38:23.144Z,14.83
2018-04-30T07:39:23.106Z,14.9
2018-04-30T07:40:23.089Z,14.92
2018-04-30T07:41:23.074Z,14.92
2018-04-30T07:42:23.125Z,14.99
2018-04-30T07:43:23.166Z,14.9
2018-04-30T07:44:23.104Z,14.95
2018-04-30T07:45:23.130Z,14.91
2018-04-30T07:46:23.138Z,14.93
2018-04-30T07:47:23.187Z,14.99
2018-04-30T07:48:23.191Z,15.06
2018-04-30T07:49:23.301Z,15.12
2018-04-30T07:50:23.374Z,15.18
2018-04-30T07:51:23.218Z,15.23
2018-04-30T07:52:23.103Z,15.2
2018-04-30T07:53:23.316Z,15.16
2018-04-30T07:54:23.107Z,15.19
2018-04-30T07:55:23.177Z,15.23
2018-04-30T07:56:23.210Z,15.13
2018-04-30T07:57:24.081Z,15.12
2018-04-30T07:58:23.070Z,15.09
2018-04-30T07:59:23.156Z,15.03
2018-04-30T08:00:23.134Z,15.08
2018-04-30T08:01:23.181Z,15.11
2018-04-30T08:02:23.136Z,15.11
2018-04-30T08:03:23.089Z,15.12
2018-04-30T08:04:23.100Z,15.19
2018-04-30T08:05:23.120Z,15.21
2018-04-30T08:06:23.114Z,15.22
2018-04-30T08:07:23.129Z,15.22
2018-04-30T08:08:23.132Z,15.18
2018-04-30T08:09:23.077Z,15.1
2018-04-30T08:10:23.100Z,15.1
2018-04-30T08:11:23.182Z,15.08
2018-04-30T08:12:23.143Z,15.08
2018-04-30T08:13:23.080Z,15.03
2018-04-30T08:14:23.128Z,15.04
2018-04-30T08:15:23.105Z,15.05
2018-04-30T08:16:23.190Z,15.09
2018-04-30T08:17:23.139Z,15.14
2018-04-30T08:18:23.132Z,15.25
2018-04-30T08:19:23.124Z,15.32
2018-04-30T08:20:23.122Z,15.45
2018-04-30T08:21:23.187Z,15.47
2018-04-30T08:22:23.111Z,15.51
2018-04-30T08:23:23.159Z,15.49
2018-04-30T08:24:23.171Z,15.5
2018-04-30T08:25:23.168Z,15.47
2018-04-30T08:26:23.318Z,15.46
2018-04-30T08:27:23.127Z,15.55
2018-04-30T08:28:23.081Z,15.68
2018-04-30T08:29:23.090Z,15.75
2018-04-30T08:30:23.113Z,15.78
2018-04-30T08:31:23.218Z,15.82
2018-04-30T08:32:23.113Z,15.82
2018-04-30T08:33:23.113Z,15.92
2018-04-30T08:34:23.165Z,15.96
2018-04-30T08:35:23.168Z,15.97
2018-04-30T08:36:23.198Z,15.98
2018-04-30T08:37:23.126Z,15.96
2018-04-30T08:38:23.133Z,15.91
2018-04-30T08:39:23.169Z,15.93
2018-04-30T08:40:23.148Z,16
2018-04-30T08:41:23.119Z,16.05
2018-04-30T08:42:23.123Z,16.13
2018-04-30T08:43:23.137Z,16.23
2018-04-30T08:44:23.690Z,16.31
2018-04-30T08:45:23.321Z,16.39
2018-04-30T08:46:23.744Z,16.47
2018-04-30T08:47:23.833Z,16.54
2018-04-30T08:48:23.545Z,16.61
2018-04-30T08:49:23.904Z,16.63
2018-04-30T08:50:24.871Z,16.66
2018-04-30T08:51:23.922Z,16.62
2018-04-30T08:52:23.114Z,16.65
2018-04-30T08:53:23.201Z,16.58
2018-04-30T08:54:23.107Z,16.53
2018-04-30T08:55:23.110Z,16.43
2018-04-30T08:56:23.854Z,16.42
2018-04-30T08:57:23.143Z,16.37
2018-04-30T08:58:23.141Z,16.27
2018-04-30T08:59:23.143Z,16.23
2018-04-30T09:00:24.316Z,16.22
2018-04-30T09:01:23.471Z,16.23
2018-04-30T09:02:23.191Z,16.31
2018-04-30T09:03:23.198Z,16.38
2018-04-30T09:04:23.162Z,16.44
2018-04-30T09:05:23.144Z,16.49
2018-04-30T09:06:23.161Z,16.44
2018-04-30T09:07:23.117Z,16.48
2018-04-30T09:08:23.121Z,16.52
2018-04-30T09:09:23.144Z,16.6
2018-04-30T09:10:23.129Z,16.62
2018-04-30T09:11:23.317Z,16.6
2018-04-30T09:12:23.145Z,16.59
2018-04-30T09:13:23.121Z,16.5
2018-04-30T09:14:23.130Z,16.4
2018-04-30T09:15:23.266Z,16.46
2018-04-30T09:16:26.094Z,16.47
2018-04-30T09:17:23.133Z,16.47
2018-04-30T09:18:24.537Z,16.36
2018-04-30T09:19:23.153Z,16.35
2018-04-30T09:20:23.293Z,16.42
2018-04-30T09:21:23.144Z,16.43
2018-04-30T09:22:23.175Z,16.48
2018-04-30T09:23:23.981Z,16.5
2018-04-30T09:24:23.158Z,16.46
2018-04-30T09:25:23.180Z,16.43
2018-04-30T09:26:23.224Z,16.45
2018-04-30T09:27:23.170Z,16.49
2018-04-30T09:28:23.183Z,16.48
2018-04-30T09:29:23.182Z,16.59
2018-04-30T09:30:23.242Z,16.69
2018-04-30T09:31:23.183Z,16.8
2018-04-30T09:32:23.216Z,16.86
2018-04-30T09:33:23.169Z,16.85
2018-04-30T09:34:23.170Z,16.84
2018-04-30T09:35:23.336Z,16.97
2018-04-30T09:36:23.245Z,17.06
2018-04-30T09:37:23.186Z,17.13
2018-04-30T09:38:23.191Z,17.21
2018-04-30T09:39:23.157Z,17.24
2018-04-30T09:40:23.159Z,17.22
2018-04-30T09:41:23.195Z,17.17
2018-04-30T09:42:23.166Z,17.22
2018-04-30T09:43:23.239Z,17.29
2018-04-30T09:44:23.143Z,17.33
2018-04-30T09:45:23.169Z,17.28
2018-04-30T09:46:23.187Z,17.19
2018-04-30T09:47:23.171Z,17.22
2018-04-30T09:48:23.245Z,17.27
2018-04-30T09:49:23.138Z,17.26
2018-04-30T09:50:23.148Z,17.37
2018-04-30T09:51:23.138Z,17.4
2018-04-30T09:52:23.185Z,17.48
2018-04-30T09:53:23.154Z,17.5
2018-04-30T09:54:23.187Z,17.54
2018-04-30T09:55:23.227Z,17.56
2018-04-30T09:56:23.139Z,17.53
2018-04-30T09:57:23.183Z,17.54
2018-04-30T09:58:23.156Z,17.48
2018-04-30T09:59:23.276Z,17.51
2018-04-30T10:00:23.185Z,17.58
2018-04-30T10:01:23.146Z,17.6
2018-04-30T10:02:23.165Z,17.66
2018-04-30T10:03:23.161Z,17.72
2018-04-30T10:04:23.151Z,17.78
2018-04-30T10:05:23.199Z,17.83
2018-04-30T10:06:23.328Z,17.88
2018-04-30T10:07:23.964Z,17.85
2018-04-30T10:08:23.156Z,17.85
2018-04-30T10:09:23.174Z,17.9
2018-04-30T10:10:23.165Z,17.79
2018-04-30T10:11:23.178Z,17.54
2018-04-30T10:12:23.267Z,17.5
2018-04-30T10:13:23.155Z,17.5
2018-04-30T10:14:23.260Z,17.49
2018-04-30T10:15:23.178Z,17.33
2018-04-30T10:16:23.185Z,17.33
2018-04-30T10:17:23.332Z,17.35
2018-04-30T10:18:23.208Z,17.38
2018-04-30T10:19:23.221Z,17.39
2018-04-30T10:20:23.152Z,17.45
2018-04-30T10:21:23.148Z,17.57
2018-04-30T10:22:23.186Z,17.65
2018-04-30T10:23:23.874Z,17.64
2018-04-30T10:24:23.163Z,17.65
2018-04-30T10:25:23.320Z,17.59
2018-04-30T10:26:23.213Z,17.62
2018-04-30T10:27:23.178Z,17.55
2018-04-30T10:28:23.171Z,17.63
2018-04-30T10:29:23.193Z,17.7
2018-04-30T10:30:23.180Z,17.74
2018-04-30T10:31:23.237Z,17.78
2018-04-30T10:32:23.167Z,17.77
2018-04-30T10:33:23.225Z,17.87
2018-04-30T10:34:23.235Z,17.88
2018-04-30T10:35:23.218Z,17.95
2018-04-30T10:36:23.226Z,17.99
2018-04-30T10:37:23.242Z,18.1
2018-04-30T10:38:23.235Z,18.17
2018-04-30T10:39:23.219Z,18.16
2018-04-30T10:40:23.273Z,18.14
2018-04-30T10:41:23.196Z,18.15
2018-04-30T10:42:23.269Z,18.19
2018-04-30T10:43:23.323Z,18.2
2018-04-30T10:44:23.709Z,18.27
2018-04-30T10:45:23.252Z,18.33
2018-04-30T10:46:23.259Z,18.32
2018-04-30T10:47:23.222Z,18.39
2018-04-30T10:48:23.207Z,18.46
2018-04-30T10:49:23.211Z,18.52
2018-04-30T10:50:23.223Z,18.56
2018-04-30T10:51:23.307Z,18.64
2018-04-30T10:52:23.248Z,18.64
2018-04-30T10:53:23.822Z,18.68
2018-04-30T10:54:23.850Z,18.69
2018-04-30T10:55:23.191Z,18.74
2018-04-30T10:56:24.463Z,18.81
2018-04-30T10:57:23.221Z,18.83
2018-04-30T10:58:23.229Z,18.84
2018-04-30T10:59:23.193Z,18.82
2018-04-30T11:00:23.204Z,18.7
2018-04-30T11:01:23.185Z,18.55
2018-04-30T11:02:23.221Z,18.45
2018-04-30T11:03:23.357Z,18.42
2018-04-30T11:04:23.185Z,18.33
2018-04-30T11:05:23.332Z,18.28
2018-04-30T11:06:23.201Z,18.22
2018-04-30T11:07:23.220Z,18.21
2018-04-30T11:08:23.271Z,18.16
2018-04-30T11:09:23.213Z,18.22
2018-04-30T11:10:23.208Z,18.29
2018-04-30T11:11:23.186Z,18.33
2018-04-30T11:12:23.779Z,18.29
2018-04-30T11:13:23.211Z,18.27
2018-04-30T11:14:23.233Z,18.23
2018-04-30T11:15:23.216Z,18.11
2018-04-30T11:16:23.213Z,18.09
2018-04-30T11:17:23.219Z,18.1
2018-04-30T11:18:23.376Z,18.04
2018-04-30T11:19:23.987Z,18
2018-04-30T11:20:23.308Z,17.96
2018-04-30T11:21:24.177Z,17.85
2018-04-30T11:22:23.227Z,17.76
2018-04-30T11:23:23.238Z,17.68
2018-04-30T11:24:23.337Z,17.63
2018-04-30T11:25:23.351Z,17.59
2018-04-30T11:26:23.215Z,17.63
2018-04-30T11:27:23.191Z,17.62
2018-04-30T11:28:25.456Z,17.67
2018-04-30T11:29:23.236Z,17.72
2018-04-30T11:30:23.366Z,17.81
2018-04-30T11:31:23.637Z,17.95
2018-04-30T11:32:23.270Z,18.1
2018-04-30T11:33:23.274Z,18.2
2018-04-30T11:34:23.305Z,18.32
2018-04-30T11:35:23.501Z,18.39
2018-04-30T11:36:25.283Z,18.42
2018-04-30T11:37:23.302Z,18.45
2018-04-30T11:38:23.276Z,18.44
2018-04-30T11:39:23.365Z,18.46
2018-04-30T11:40:23.311Z,18.56
2018-04-30T11:41:23.350Z,18.6
2018-04-30T11:42:23.305Z,18.66
2018-04-30T11:43:23.263Z,18.59
2018-04-30T11:44:23.260Z,18.57
2018-04-30T11:45:24.423Z,18.61
2018-04-30T11:46:23.748Z,18.58
2018-04-30T11:47:23.295Z,18.68
2018-04-30T11:48:23.308Z,18.73
2018-04-30T11:49:23.317Z,18.77
2018-04-30T11:50:23.287Z,18.56
2018-04-30T11:51:23.310Z,18.57
2018-04-30T11:52:23.276Z,18.6
2018-04-30T11:53:23.344Z,18.61
2018-04-30T11:54:24.148Z,18.7
2018-04-30T11:55:23.330Z,18.74
2018-04-30T11:56:23.310Z,18.67
2018-04-30T11:57:23.381Z,18.76
2018-04-30T11:58:28.908Z,18.83
2018-04-30T11:59:23.278Z,18.87
2018-04-30T12:00:23.554Z,18.79
2018-04-30T12:01:24.321Z,18.78
2018-04-30T12:02:25.232Z,18.88
2018-04-30T12:03:23.338Z,18.93
2018-04-30T12:04:23.282Z,18.96
2018-04-30T12:05:23.329Z,18.93
2018-04-30T12:06:23.386Z,18.87
2018-04-30T12:07:23.292Z,18.87
2018-04-30T12:08:23.318Z,18.89
2018-04-30T12:09:23.312Z,18.8
2018-04-30T12:10:23.298Z,18.77
2018-04-30T12:11:23.330Z,18.69
2018-04-30T12:12:23.289Z,18.68
2018-04-30T12:13:23.361Z,18.65
2018-04-30T12:14:23.767Z,18.63
2018-04-30T12:15:23.306Z,18.63
2018-04-30T12:16:23.400Z,18.65
2018-04-30T12:17:23.378Z,18.64
2018-04-30T12:18:23.387Z,18.51
2018-04-30T12:19:23.339Z,18.47
2018-04-30T12:20:23.340Z,18.48
2018-04-30T12:21:23.353Z,18.45
2018-04-30T12:22:25.561Z,18.5
2018-04-30T12:23:23.332Z,18.51
2018-04-30T12:24:23.362Z,18.55
2018-04-30T12:25:23.328Z,18.56
2018-04-30T12:26:23.329Z,18.45
2018-04-30T12:27:23.337Z,18.59
2018-04-30T12:28:23.326Z,18.67
2018-04-30T12:29:23.369Z,18.72
2018-04-30T12:30:23.339Z,18.76
2018-04-30T12:31:26.971Z,18.73
2018-04-30T12:32:23.569Z,18.7
2018-04-30T12:33:23.575Z,18.68
2018-04-30T12:34:23.376Z,18.66
2018-04-30T12:35:23.401Z,18.67
2018-04-30T12:36:23.343Z,18.63
2018-04-30T12:37:23.314Z,18.63
2018-04-30T12:38:23.324Z,18.73
2018-04-30T12:39:23.850Z,18.84
2018-04-30T12:40:27.607Z,18.88
2018-04-30T12:41:23.367Z,18.99
2018-04-30T12:42:23.306Z,19.07
2018-04-30T12:43:23.403Z,19
2018-04-30T12:44:23.361Z,19.07
2018-04-30T12:45:23.564Z,19.14
2018-04-30T12:46:23.416Z,19.21
2018-04-30T12:47:23.425Z,19.21
2018-04-30T12:48:23.530Z,19.16
2018-04-30T12:49:27.301Z,19.22
2018-04-30T12:50:23.359Z,19.28
2018-04-30T12:51:23.611Z,19.39
2018-04-30T12:52:23.509Z,19.46
2018-04-30T12:53:23.346Z,19.4
2018-04-30T12:54:23.558Z,19.35
2018-04-30T12:55:24.594Z,19.27
2018-04-30T12:56:23.353Z,19.23